sensor_id;sensor_type;location;lat;lon;timestamp;pressure;altitude;pressure_sealevel;temperature;humidity
19736;BME280;32064;49.310;8.646;2023-05-25T00:00:44;101004.13;;;15.21;48.49
19736;BME280;32064;49.310;8.646;2023-05-25T00:03:10;101012.06;;;15.21;48.51
19736;BME280;32064;49.310;8.646;2023-05-25T00:05:35;101006.78;;;15.21;48.48
19736;BME280;32064;49.310;8.646;2023-05-25T00:08:01;101005.69;;;15.12;49.26
19736;BME280;32064;49.310;8.646;2023-05-25T00:10:27;101004.63;;;15.15;48.62
19736;BME280;32064;49.310;8.646;2023-05-25T00:12:52;101010.38;;;15.20;48.61
19736;BME280;32064;49.310;8.646;2023-05-25T00:15:19;101008.59;;;15.20;48.84
19736;BME280;32064;49.310;8.646;2023-05-25T00:17:45;101003.97;;;15.22;48.05
19736;BME280;32064;49.310;8.646;2023-05-25T00:20:13;101003.03;;;15.23;48.17
19736;BME280;32064;49.310;8.646;2023-05-25T00:22:39;101011.25;;;15.20;48.72
19736;BME280;32064;49.310;8.646;2023-05-25T00:25:09;101007.13;;;15.16;48.79
19736;BME280;32064;49.310;8.646;2023-05-25T00:27:35;101009.28;;;15.11;48.29
19736;BME280;32064;49.310;8.646;2023-05-25T00:30:00;101000.28;;;15.02;48.93
19736;BME280;32064;49.310;8.646;2023-05-25T00:32:26;100995.34;;;14.98;49.16
19736;BME280;32064;49.310;8.646;2023-05-25T00:34:52;101001.50;;;14.98;49.42
19736;BME280;32064;49.310;8.646;2023-05-25T00:37:18;101007.03;;;14.95;49.97
19736;BME280;32064;49.310;8.646;2023-05-25T00:39:43;101011.72;;;14.92;49.31
19736;BME280;32064;49.310;8.646;2023-05-25T00:42:09;101005.94;;;14.87;49.71
19736;BME280;32064;49.310;8.646;2023-05-25T00:44:34;101001.72;;;14.84;49.85
19736;BME280;32064;49.310;8.646;2023-05-25T00:47:00;101002.81;;;14.81;50.17
19736;BME280;32064;49.310;8.646;2023-05-25T00:49:30;101003.66;;;14.82;49.88
19736;BME280;32064;49.310;8.646;2023-05-25T00:51:57;101000.41;;;14.78;50.62
19736;BME280;32064;49.310;8.646;2023-05-25T00:54:23;101009.19;;;14.79;50.90
19736;BME280;32064;49.310;8.646;2023-05-25T00:59:28;100998.47;;;14.69;50.75
19736;BME280;32064;49.310;8.646;2023-05-25T01:02:02;101009.28;;;14.66;50.83
19736;BME280;32064;49.310;8.646;2023-05-25T01:04:30;101005.31;;;14.60;50.94
19736;BME280;32064;49.310;8.646;2023-05-25T01:06:57;101006.53;;;14.56;51.43
19736;BME280;32064;49.310;8.646;2023-05-25T01:09:25;101005.94;;;14.53;51.38
19736;BME280;32064;49.310;8.646;2023-05-25T01:11:52;101011.22;;;14.53;51.92
19736;BME280;32064;49.310;8.646;2023-05-25T01:14:20;101013.72;;;14.54;51.54
19736;BME280;32064;49.310;8.646;2023-05-25T01:16:47;101003.47;;;14.50;51.52
19736;BME280;32064;49.310;8.646;2023-05-25T01:19:12;101007.72;;;14.52;51.50
19736;BME280;32064;49.310;8.646;2023-05-25T01:21:56;101010.44;;;14.51;51.29
19736;BME280;32064;49.310;8.646;2023-05-25T01:24:33;101008.03;;;14.48;51.77
19736;BME280;32064;49.310;8.646;2023-05-25T01:27:22;101002.84;;;14.46;51.66
19736;BME280;32064;49.310;8.646;2023-05-25T01:29:49;101003.81;;;14.45;51.78
19736;BME280;32064;49.310;8.646;2023-05-25T01:32:16;100998.75;;;14.42;52.01
19736;BME280;32064;49.310;8.646;2023-05-25T01:34:43;101009.25;;;14.44;51.87
19736;BME280;32064;49.310;8.646;2023-05-25T01:37:10;101013.22;;;14.38;51.63
19736;BME280;32064;49.310;8.646;2023-05-25T01:39:39;101012.72;;;14.33;51.83
19736;BME280;32064;49.310;8.646;2023-05-25T01:42:04;101016.78;;;14.26;51.76
19736;BME280;32064;49.310;8.646;2023-05-25T01:44:30;101020.63;;;14.22;52.09
19736;BME280;32064;49.310;8.646;2023-05-25T01:54:29;101022.22;;;14.00;53.09
19736;BME280;32064;49.310;8.646;2023-05-25T01:57:00;101023.06;;;14.01;53.33
19736;BME280;32064;49.310;8.646;2023-05-25T01:59:30;101023.28;;;13.98;53.38
19736;BME280;32064;49.310;8.646;2023-05-25T02:01:58;101020.78;;;13.96;52.78
19736;BME280;32064;49.310;8.646;2023-05-25T02:04:25;101017.38;;;13.94;53.30
19736;BME280;32064;49.310;8.646;2023-05-25T02:06:51;101020.34;;;13.89;53.79
19736;BME280;32064;49.310;8.646;2023-05-25T02:09:17;101017.84;;;13.88;53.45
19736;BME280;32064;49.310;8.646;2023-05-25T02:11:42;101022.28;;;13.87;54.17
19736;BME280;32064;49.310;8.646;2023-05-25T02:14:08;101017.00;;;13.87;53.77
19736;BME280;32064;49.310;8.646;2023-05-25T02:16:35;101018.44;;;13.91;54.29
19736;BME280;32064;49.310;8.646;2023-05-25T02:19:00;101016.41;;;13.95;54.15
19736;BME280;32064;49.310;8.646;2023-05-25T02:21:25;101013.06;;;13.93;53.86
19736;BME280;32064;49.310;8.646;2023-05-25T02:23:52;101022.78;;;13.92;54.32
19736;BME280;32064;49.310;8.646;2023-05-25T02:26:18;101014.22;;;13.89;54.23
19736;BME280;32064;49.310;8.646;2023-05-25T02:28:44;101018.06;;;13.85;53.95
19736;BME280;32064;49.310;8.646;2023-05-25T02:31:10;101013.13;;;13.80;54.30
19736;BME280;32064;49.310;8.646;2023-05-25T02:33:35;101014.53;;;13.73;55.00
19736;BME280;32064;49.310;8.646;2023-05-25T02:36:00;101009.44;;;13.70;54.70
19736;BME280;32064;49.310;8.646;2023-05-25T02:38:26;101008.75;;;13.68;54.61
19736;BME280;32064;49.310;8.646;2023-05-25T02:40:51;101012.44;;;13.65;55.61
19736;BME280;32064;49.310;8.646;2023-05-25T02:43:17;101011.59;;;13.65;54.70
19736;BME280;32064;49.310;8.646;2023-05-25T02:45:42;101005.41;;;13.53;54.67
19736;BME280;32064;49.310;8.646;2023-05-25T02:48:07;101005.34;;;13.42;54.72
19736;BME280;32064;49.310;8.646;2023-05-25T02:50:33;101007.03;;;13.43;54.97
19736;BME280;32064;49.310;8.646;2023-05-25T02:52:58;100997.19;;;13.45;55.64
19736;BME280;32064;49.310;8.646;2023-05-25T02:55:23;101001.22;;;13.38;54.50
19736;BME280;32064;49.310;8.646;2023-05-25T02:57:50;101005.69;;;13.37;55.08
19736;BME280;32064;49.310;8.646;2023-05-25T03:00:16;101003.56;;;13.42;54.95
19736;BME280;32064;49.310;8.646;2023-05-25T03:02:41;101004.38;;;13.43;54.80
19736;BME280;32064;49.310;8.646;2023-05-25T03:05:07;100998.97;;;13.44;54.36
19736;BME280;32064;49.310;8.646;2023-05-25T03:07:33;101008.41;;;13.36;55.58
19736;BME280;32064;49.310;8.646;2023-05-25T03:09:58;101006.97;;;13.32;55.40
19736;BME280;32064;49.310;8.646;2023-05-25T03:12:23;100999.03;;;13.32;55.72
19736;BME280;32064;49.310;8.646;2023-05-25T03:14:49;101006.84;;;13.33;55.25
19736;BME280;32064;49.310;8.646;2023-05-25T03:17:14;101010.44;;;13.32;55.27
19736;BME280;32064;49.310;8.646;2023-05-25T03:19:40;101009.69;;;13.30;55.69
19736;BME280;32064;49.310;8.646;2023-05-25T03:22:06;101007.59;;;13.10;56.78
19736;BME280;32064;49.310;8.646;2023-05-25T03:24:32;101023.22;;;13.13;55.90
19736;BME280;32064;49.310;8.646;2023-05-25T03:26:57;101018.06;;;13.11;56.43
19736;BME280;32064;49.310;8.646;2023-05-25T03:29:22;101026.00;;;13.11;56.65
19736;BME280;32064;49.310;8.646;2023-05-25T03:31:48;101020.50;;;13.14;57.32
19736;BME280;32064;49.310;8.646;2023-05-25T03:34:13;101029.25;;;13.15;56.00
19736;BME280;32064;49.310;8.646;2023-05-25T03:36:38;101023.38;;;13.11;56.05
19736;BME280;32064;49.310;8.646;2023-05-25T03:39:04;101026.84;;;13.12;56.86
19736;BME280;32064;49.310;8.646;2023-05-25T03:41:31;101028.31;;;13.16;56.63
19736;BME280;32064;49.310;8.646;2023-05-25T03:43:56;101039.22;;;13.11;56.43
19736;BME280;32064;49.310;8.646;2023-05-25T03:46:22;101036.66;;;13.10;57.28
19736;BME280;32064;49.310;8.646;2023-05-25T03:48:47;101042.06;;;13.08;57.31
19736;BME280;32064;49.310;8.646;2023-05-25T03:51:12;101046.41;;;13.09;56.21
19736;BME280;32064;49.310;8.646;2023-05-25T03:53:38;101040.28;;;13.09;56.10
19736;BME280;32064;49.310;8.646;2023-05-25T03:56:04;101044.72;;;13.08;56.37
19736;BME280;32064;49.310;8.646;2023-05-25T03:58:29;101041.31;;;13.06;56.84
19736;BME280;32064;49.310;8.646;2023-05-25T04:00:54;101049.25;;;13.06;57.85
19736;BME280;32064;49.310;8.646;2023-05-25T04:03:20;101050.22;;;13.05;57.05
19736;BME280;32064;49.310;8.646;2023-05-25T04:05:46;101051.91;;;13.06;58.26
19736;BME280;32064;49.310;8.646;2023-05-25T04:08:13;101057.19;;;13.06;57.70
19736;BME280;32064;49.310;8.646;2023-05-25T04:10:43;101050.84;;;13.09;58.20
19736;BME280;32064;49.310;8.646;2023-05-25T04:13:09;101060.34;;;13.11;58.97
19736;BME280;32064;49.310;8.646;2023-05-25T04:15:34;101057.38;;;13.16;58.05
19736;BME280;32064;49.310;8.646;2023-05-25T04:18:00;101069.06;;;13.24;57.72
19736;BME280;32064;49.310;8.646;2023-05-25T04:20:27;101063.63;;;13.28;57.77
19736;BME280;32064;49.310;8.646;2023-05-25T04:22:52;101070.47;;;13.30;57.48
19736;BME280;32064;49.310;8.646;2023-05-25T04:25:18;101069.41;;;13.33;58.45
19736;BME280;32064;49.310;8.646;2023-05-25T04:27:44;101070.16;;;13.35;58.35
19736;BME280;32064;49.310;8.646;2023-05-25T04:30:11;101059.59;;;13.35;57.39
19736;BME280;32064;49.310;8.646;2023-05-25T04:32:36;101068.97;;;13.39;58.38
19736;BME280;32064;49.310;8.646;2023-05-25T04:35:02;101070.47;;;13.43;58.26
19736;BME280;32064;49.310;8.646;2023-05-25T04:37:29;101063.91;;;13.48;58.26
19736;BME280;32064;49.310;8.646;2023-05-25T04:39:57;101070.31;;;13.57;58.33
19736;BME280;32064;49.310;8.646;2023-05-25T04:42:22;101076.56;;;13.56;58.27
19736;BME280;32064;49.310;8.646;2023-05-25T04:44:49;101076.44;;;13.58;57.94
19736;BME280;32064;49.310;8.646;2023-05-25T04:47:15;101077.94;;;13.62;57.94
19736;BME280;32064;49.310;8.646;2023-05-25T04:49:41;101068.81;;;13.66;57.49
19736;BME280;32064;49.310;8.646;2023-05-25T04:52:06;101080.66;;;13.73;58.28
19736;BME280;32064;49.310;8.646;2023-05-25T04:54:32;101070.22;;;13.83;58.64
19736;BME280;32064;49.310;8.646;2023-05-25T04:56:58;101081.31;;;13.88;58.18
19736;BME280;32064;49.310;8.646;2023-05-25T04:59:23;101080.13;;;13.92;58.75
19736;BME280;32064;49.310;8.646;2023-05-25T05:01:49;101078.75;;;13.99;58.20
19736;BME280;32064;49.310;8.646;2023-05-25T05:04:15;101087.19;;;14.04;57.73
19736;BME280;32064;49.310;8.646;2023-05-25T05:06:40;101079.34;;;14.03;57.61
19736;BME280;32064;49.310;8.646;2023-05-25T05:09:06;101087.06;;;14.06;57.77
19736;BME280;32064;49.310;8.646;2023-05-25T05:11:31;101097.41;;;14.09;58.13
19736;BME280;32064;49.310;8.646;2023-05-25T05:13:57;101085.03;;;14.09;57.65
19736;BME280;32064;49.310;8.646;2023-05-25T05:16:23;101094.44;;;14.13;58.13
19736;BME280;32064;49.310;8.646;2023-05-25T05:18:49;101100.97;;;14.21;57.20
19736;BME280;32064;49.310;8.646;2023-05-25T05:21:14;101104.63;;;14.31;57.32
19736;BME280;32064;49.310;8.646;2023-05-25T05:23:43;101103.66;;;14.32;57.47
19736;BME280;32064;49.310;8.646;2023-05-25T05:26:08;101101.63;;;14.35;57.39
19736;BME280;32064;49.310;8.646;2023-05-25T05:28:36;101108.97;;;14.43;57.11
19736;BME280;32064;49.310;8.646;2023-05-25T05:31:04;101111.31;;;14.48;57.19
19736;BME280;32064;49.310;8.646;2023-05-25T05:33:31;101105.34;;;14.57;57.35
19736;BME280;32064;49.310;8.646;2023-05-25T05:35:57;101112.72;;;14.65;57.35
19736;BME280;32064;49.310;8.646;2023-05-25T05:38:23;101109.34;;;14.74;56.71
19736;BME280;32064;49.310;8.646;2023-05-25T05:40:48;101108.44;;;14.86;57.33
19736;BME280;32064;49.310;8.646;2023-05-25T05:43:14;101113.72;;;14.97;56.59
19736;BME280;32064;49.310;8.646;2023-05-25T05:45:39;101116.28;;;15.10;56.43
19736;BME280;32064;49.310;8.646;2023-05-25T05:48:06;101121.59;;;15.21;56.90
19736;BME280;32064;49.310;8.646;2023-05-25T05:50:37;101124.97;;;15.23;56.61
19736;BME280;32064;49.310;8.646;2023-05-25T05:53:03;101125.09;;;15.33;55.75
19736;BME280;32064;49.310;8.646;2023-05-25T05:55:29;101129.06;;;15.50;56.86
19736;BME280;32064;49.310;8.646;2023-05-25T05:57:54;101127.00;;;15.65;56.27
19736;BME280;32064;49.310;8.646;2023-05-25T06:00:20;101134.88;;;15.78;55.53
19736;BME280;32064;49.310;8.646;2023-05-25T06:02:46;101133.88;;;15.90;54.42
19736;BME280;32064;49.310;8.646;2023-05-25T06:05:11;101132.03;;;16.02;54.30
19736;BME280;32064;49.310;8.646;2023-05-25T06:07:37;101143.22;;;16.16;53.76
19736;BME280;32064;49.310;8.646;2023-05-25T06:10:04;101137.00;;;16.27;54.43
19736;BME280;32064;49.310;8.646;2023-05-25T06:12:30;101138.44;;;16.43;54.13
19736;BME280;32064;49.310;8.646;2023-05-25T06:14:55;101145.94;;;16.58;53.70
19736;BME280;32064;49.310;8.646;2023-05-25T06:17:22;101152.66;;;16.74;52.25
19736;BME280;32064;49.310;8.646;2023-05-25T06:19:47;101147.41;;;16.83;52.76
19736;BME280;32064;49.310;8.646;2023-05-25T06:22:14;101150.16;;;16.93;52.29
19736;BME280;32064;49.310;8.646;2023-05-25T06:24:39;101149.81;;;17.08;52.80
19736;BME280;32064;49.310;8.646;2023-05-25T06:27:05;101152.25;;;17.20;52.21
19736;BME280;32064;49.310;8.646;2023-05-25T06:29:30;101146.47;;;17.36;50.89
19736;BME280;32064;49.310;8.646;2023-05-25T06:31:56;101151.16;;;17.54;50.49
19736;BME280;32064;49.310;8.646;2023-05-25T06:34:21;101156.00;;;17.69;50.17
19736;BME280;32064;49.310;8.646;2023-05-25T06:36:47;101148.94;;;17.89;49.40
19736;BME280;32064;49.310;8.646;2023-05-25T06:39:12;101138.44;;;18.07;50.06
19736;BME280;32064;49.310;8.646;2023-05-25T06:41:38;101144.34;;;18.30;50.22
19736;BME280;32064;49.310;8.646;2023-05-25T06:44:05;101146.47;;;18.56;49.31
19736;BME280;32064;49.310;8.646;2023-05-25T06:46:31;101148.41;;;18.73;48.74
19736;BME280;32064;49.310;8.646;2023-05-25T06:48:58;101152.50;;;18.97;47.71
19736;BME280;32064;49.310;8.646;2023-05-25T06:51:24;101147.50;;;19.21;47.82
19736;BME280;32064;49.310;8.646;2023-05-25T06:53:52;101156.84;;;19.45;48.17
19736;BME280;32064;49.310;8.646;2023-05-25T06:56:17;101158.47;;;19.65;47.07
19736;BME280;32064;49.310;8.646;2023-05-25T06:58:43;101152.16;;;19.84;47.03
19736;BME280;32064;49.310;8.646;2023-05-25T07:01:09;101161.81;;;19.95;46.72
19736;BME280;32064;49.310;8.646;2023-05-25T07:03:34;101160.69;;;20.15;46.27
19736;BME280;32064;49.310;8.646;2023-05-25T07:06:00;101167.50;;;20.28;46.59
19736;BME280;32064;49.310;8.646;2023-05-25T07:08:26;101155.59;;;20.40;45.32
19736;BME280;32064;49.310;8.646;2023-05-25T07:10:51;101165.47;;;20.57;45.81
19736;BME280;32064;49.310;8.646;2023-05-25T07:13:16;101160.88;;;20.68;44.84
19736;BME280;32064;49.310;8.646;2023-05-25T07:15:42;101151.94;;;20.77;45.40
19736;BME280;32064;49.310;8.646;2023-05-25T07:18:07;101147.47;;;20.85;44.70
19736;BME280;32064;49.310;8.646;2023-05-25T07:20:37;101149.38;;;20.93;44.63
19736;BME280;32064;49.310;8.646;2023-05-25T07:23:03;101146.81;;;21.10;45.28
19736;BME280;32064;49.310;8.646;2023-05-25T07:25:28;101150.56;;;21.25;44.16
19736;BME280;32064;49.310;8.646;2023-05-25T07:27:54;101155.25;;;21.49;44.00
19736;BME280;32064;49.310;8.646;2023-05-25T07:30:20;101152.84;;;21.72;43.43
19736;BME280;32064;49.310;8.646;2023-05-25T07:32:45;101147.41;;;21.98;43.69
19736;BME280;32064;49.310;8.646;2023-05-25T07:35:11;101142.59;;;22.18;42.18
19736;BME280;32064;49.310;8.646;2023-05-25T07:37:36;101150.00;;;22.40;43.00
19736;BME280;32064;49.310;8.646;2023-05-25T07:40:02;101144.00;;;22.63;42.72
19736;BME280;32064;49.310;8.646;2023-05-25T07:42:27;101151.16;;;23.20;41.71
19736;BME280;32064;49.310;8.646;2023-05-25T07:44:59;101160.75;;;25.46;38.09
19736;BME280;32064;49.310;8.646;2023-05-25T07:47:25;101163.41;;;27.26;34.74
19736;BME280;32064;49.310;8.646;2023-05-25T07:49:51;101166.41;;;28.47;33.26
19736;BME280;32064;49.310;8.646;2023-05-25T07:52:16;101164.47;;;29.41;31.71
19736;BME280;32064;49.310;8.646;2023-05-25T07:54:43;101171.22;;;30.28;30.62
19736;BME280;32064;49.310;8.646;2023-05-25T07:57:09;101161.63;;;30.82;30.20
19736;BME280;32064;49.310;8.646;2023-05-25T07:59:35;101162.34;;;30.96;29.63
19736;BME280;32064;49.310;8.646;2023-05-25T08:02:00;101158.97;;;31.19;29.25
19736;BME280;32064;49.310;8.646;2023-05-25T08:04:26;101156.56;;;30.61;29.77
19736;BME280;32064;49.310;8.646;2023-05-25T08:06:51;101145.38;;;28.49;32.68
19736;BME280;32064;49.310;8.646;2023-05-25T08:09:17;101150.31;;;29.32;32.50
19736;BME280;32064;49.310;8.646;2023-05-25T08:11:42;101146.59;;;31.23;29.70
19736;BME280;32064;49.310;8.646;2023-05-25T08:14:10;101144.75;;;31.91;28.74
19736;BME280;32064;49.310;8.646;2023-05-25T08:16:35;101148.19;;;32.28;28.72
19736;BME280;32064;49.310;8.646;2023-05-25T08:19:01;101157.53;;;32.74;27.83
19736;BME280;32064;49.310;8.646;2023-05-25T08:21:26;101158.97;;;33.00;27.59
19736;BME280;32064;49.310;8.646;2023-05-25T08:23:52;101155.97;;;33.37;27.63
19736;BME280;32064;49.310;8.646;2023-05-25T08:26:18;101154.63;;;33.63;26.58
19736;BME280;32064;49.310;8.646;2023-05-25T08:28:44;101159.13;;;33.69;26.40
19736;BME280;32064;49.310;8.646;2023-05-25T08:31:09;101151.84;;;34.04;26.83
19736;BME280;32064;49.310;8.646;2023-05-25T08:33:36;101152.56;;;34.28;25.75
19736;BME280;32064;49.310;8.646;2023-05-25T08:36:01;101158.22;;;34.55;25.69
19736;BME280;32064;49.310;8.646;2023-05-25T08:38:27;101155.41;;;34.83;25.11
19736;BME280;32064;49.310;8.646;2023-05-25T08:41:02;101151.66;;;34.90;24.87
19736;BME280;32064;49.310;8.646;2023-05-25T08:43:27;101163.44;;;34.90;26.03
19736;BME280;32064;49.310;8.646;2023-05-25T08:45:56;101153.97;;;34.98;24.94
19736;BME280;32064;49.310;8.646;2023-05-25T08:48:25;101157.72;;;34.92;25.77
19736;BME280;32064;49.310;8.646;2023-05-25T08:50:53;101159.13;;;35.11;25.43
19736;BME280;32064;49.310;8.646;2023-05-25T08:53:20;101160.38;;;35.42;25.17
19736;BME280;32064;49.310;8.646;2023-05-25T08:55:47;101161.81;;;35.28;24.66
19736;BME280;32064;49.310;8.646;2023-05-25T08:58:21;101160.69;;;35.07;23.76
19736;BME280;32064;49.310;8.646;2023-05-25T09:00:56;101153.47;;;35.18;25.08
19736;BME280;32064;49.310;8.646;2023-05-25T09:03:23;101157.31;;;35.39;24.25
19736;BME280;32064;49.310;8.646;2023-05-25T09:05:49;101154.31;;;35.40;24.15
19736;BME280;32064;49.310;8.646;2023-05-25T09:08:19;101161.47;;;35.24;24.24
19736;BME280;32064;49.310;8.646;2023-05-25T09:10:45;101161.03;;;35.33;24.48
19736;BME280;32064;49.310;8.646;2023-05-25T09:13:11;101160.81;;;35.34;24.45
19736;BME280;32064;49.310;8.646;2023-05-25T09:15:36;101171.16;;;35.32;23.83
19736;BME280;32064;49.310;8.646;2023-05-25T09:18:02;101164.00;;;35.48;24.50
19736;BME280;32064;49.310;8.646;2023-05-25T09:20:27;101162.00;;;35.43;23.51
19736;BME280;32064;49.310;8.646;2023-05-25T09:22:56;101155.91;;;35.58;23.64
19736;BME280;32064;49.310;8.646;2023-05-25T09:25:24;101160.31;;;35.81;23.52
19736;BME280;32064;49.310;8.646;2023-05-25T09:27:51;101153.00;;;35.92;23.72
19736;BME280;32064;49.310;8.646;2023-05-25T09:30:17;101157.97;;;35.95;23.96
19736;BME280;32064;49.310;8.646;2023-05-25T09:32:42;101156.88;;;36.18;23.16
19736;BME280;32064;49.310;8.646;2023-05-25T09:35:12;101156.34;;;36.21;23.40
19736;BME280;32064;49.310;8.646;2023-05-25T09:37:39;101154.47;;;36.27;23.55
19736;BME280;32064;49.310;8.646;2023-05-25T09:40:06;101161.69;;;36.38;23.24
19736;BME280;32064;49.310;8.646;2023-05-25T09:42:33;101156.97;;;36.60;22.61
19736;BME280;32064;49.310;8.646;2023-05-25T09:44:58;101162.28;;;36.72;22.50
19736;BME280;32064;49.310;8.646;2023-05-25T09:47:25;101164.25;;;36.82;22.92
19736;BME280;32064;49.310;8.646;2023-05-25T09:49:51;101156.25;;;36.75;22.93
19736;BME280;32064;49.310;8.646;2023-05-25T09:52:17;101150.53;;;36.82;23.03
19736;BME280;32064;49.310;8.646;2023-05-25T09:54:44;101155.06;;;36.61;22.65
19736;BME280;32064;49.310;8.646;2023-05-25T09:57:10;101159.31;;;36.52;22.52
19736;BME280;32064;49.310;8.646;2023-05-25T09:59:35;101151.09;;;36.52;22.51
19736;BME280;32064;49.310;8.646;2023-05-25T10:02:01;101156.13;;;36.55;22.83
19736;BME280;32064;49.310;8.646;2023-05-25T10:04:26;101157.09;;;36.49;22.87
19736;BME280;32064;49.310;8.646;2023-05-25T10:06:52;101153.50;;;36.75;22.91
19736;BME280;32064;49.310;8.646;2023-05-25T10:09:19;101154.91;;;36.78;22.43
19736;BME280;32064;49.310;8.646;2023-05-25T10:11:45;101145.81;;;36.72;22.45
19736;BME280;32064;49.310;8.646;2023-05-25T10:14:13;101157.16;;;36.86;22.35
19736;BME280;32064;49.310;8.646;2023-05-25T10:16:44;101149.03;;;37.01;22.85
19736;BME280;32064;49.310;8.646;2023-05-25T10:19:15;101155.78;;;36.89;22.88
19736;BME280;32064;49.310;8.646;2023-05-25T10:21:49;101152.00;;;37.00;22.44
19736;BME280;32064;49.310;8.646;2023-05-25T10:26:53;101147.81;;;37.35;21.97
19736;BME280;32064;49.310;8.646;2023-05-25T10:29:24;101151.84;;;37.17;22.63
19736;BME280;32064;49.310;8.646;2023-05-25T10:31:50;101144.97;;;37.14;21.76
19736;BME280;32064;49.310;8.646;2023-05-25T10:34:17;101139.47;;;36.72;22.33
19736;BME280;32064;49.310;8.646;2023-05-25T10:36:42;101149.63;;;36.71;22.22
19736;BME280;32064;49.310;8.646;2023-05-25T10:39:08;101147.00;;;36.86;21.96
19736;BME280;32064;49.310;8.646;2023-05-25T10:41:34;101145.75;;;36.35;22.33
19736;BME280;32064;49.310;8.646;2023-05-25T10:44:00;101142.28;;;36.45;22.55
19736;BME280;32064;49.310;8.646;2023-05-25T10:46:26;101140.53;;;36.60;22.80
19736;BME280;32064;49.310;8.646;2023-05-25T10:48:53;101139.66;;;36.97;21.68
19736;BME280;32064;49.310;8.646;2023-05-25T10:51:36;101142.72;;;37.01;21.69
19736;BME280;32064;49.310;8.646;2023-05-25T10:54:02;101131.03;;;37.26;21.93
19736;BME280;32064;49.310;8.646;2023-05-25T10:56:27;101132.31;;;36.66;21.76
19736;BME280;32064;49.310;8.646;2023-05-25T10:58:53;101129.13;;;36.47;22.14
19736;BME280;32064;49.310;8.646;2023-05-25T11:01:18;101130.75;;;36.80;22.38
19736;BME280;32064;49.310;8.646;2023-05-25T11:06:15;101132.41;;;36.81;22.38
19736;BME280;32064;49.310;8.646;2023-05-25T11:11:16;101134.91;;;37.35;21.51
19736;BME280;32064;49.310;8.646;2023-05-25T11:13:46;101135.28;;;37.54;21.64
19736;BME280;32064;49.310;8.646;2023-05-25T11:18:58;101122.34;;;36.97;21.57
19736;BME280;32064;49.310;8.646;2023-05-25T11:24:02;101121.13;;;36.40;22.20
19736;BME280;32064;49.310;8.646;2023-05-25T11:26:29;101127.44;;;35.81;22.77
19736;BME280;32064;49.310;8.646;2023-05-25T11:28:56;101124.69;;;35.37;23.06
19736;BME280;32064;49.310;8.646;2023-05-25T11:31:32;101113.69;;;34.93;23.71
19736;BME280;32064;49.310;8.646;2023-05-25T11:33:59;101110.56;;;34.51;23.63
19736;BME280;32064;49.310;8.646;2023-05-25T11:36:26;101109.00;;;34.04;24.86
19736;BME280;32064;49.310;8.646;2023-05-25T11:38:52;101102.44;;;33.76;25.34
19736;BME280;32064;49.310;8.646;2023-05-25T11:41:19;101094.91;;;33.26;25.09
19736;BME280;32064;49.310;8.646;2023-05-25T11:43:47;101101.34;;;32.85;26.25
19736;BME280;32064;49.310;8.646;2023-05-25T11:46:13;101097.75;;;32.37;26.88
19736;BME280;32064;49.310;8.646;2023-05-25T11:48:52;101092.06;;;32.39;26.79
19736;BME280;32064;49.310;8.646;2023-05-25T11:51:26;101100.81;;;32.41;26.72
19736;BME280;32064;49.310;8.646;2023-05-25T11:53:52;101097.03;;;32.42;27.02
19736;BME280;32064;49.310;8.646;2023-05-25T11:56:21;101091.50;;;31.95;27.52
19736;BME280;32064;49.310;8.646;2023-05-25T11:58:48;101086.59;;;31.85;27.97
19736;BME280;32064;49.310;8.646;2023-05-25T12:01:20;101086.59;;;31.55;28.13
19736;BME280;32064;49.310;8.646;2023-05-25T12:03:50;101092.19;;;31.42;28.03
19736;BME280;32064;49.310;8.646;2023-05-25T12:06:31;101084.84;;;31.24;28.14
19736;BME280;32064;49.310;8.646;2023-05-25T12:09:10;101079.34;;;31.12;28.16
19736;BME280;32064;49.310;8.646;2023-05-25T12:11:37;101069.59;;;31.04;28.86
19736;BME280;32064;49.310;8.646;2023-05-25T12:14:04;101069.63;;;30.61;29.10
19736;BME280;32064;49.310;8.646;2023-05-25T12:16:32;101083.72;;;30.95;28.33
19736;BME280;32064;49.310;8.646;2023-05-25T12:18:59;101081.25;;;31.12;28.08
19736;BME280;32064;49.310;8.646;2023-05-25T12:21:25;101083.31;;;31.28;27.90
19736;BME280;32064;49.310;8.646;2023-05-25T12:23:52;101084.50;;;31.39;28.08
19736;BME280;32064;49.310;8.646;2023-05-25T12:26:18;101071.25;;;31.24;28.77
19736;BME280;32064;49.310;8.646;2023-05-25T12:29:04;101062.50;;;31.03;27.74
19736;BME280;32064;49.310;8.646;2023-05-25T12:31:31;101059.84;;;30.97;28.49
19736;BME280;32064;49.310;8.646;2023-05-25T12:34:15;101059.63;;;30.80;28.16
19736;BME280;32064;49.310;8.646;2023-05-25T12:36:59;101059.91;;;30.72;28.30
19736;BME280;32064;49.310;8.646;2023-05-25T12:41:54;101060.69;;;30.97;28.87
19736;BME280;32064;49.310;8.646;2023-05-25T12:44:22;101040.25;;;30.95;29.21
19736;BME280;32064;49.310;8.646;2023-05-25T12:46:49;101046.09;;;30.48;29.82
19736;BME280;32064;49.310;8.646;2023-05-25T12:49:28;101067.34;;;30.58;28.86
19736;BME280;32064;49.310;8.646;2023-05-25T12:51:54;101065.34;;;30.72;28.63
19736;BME280;32064;49.310;8.646;2023-05-25T12:57:02;101062.09;;;30.38;29.27
19736;BME280;32064;49.310;8.646;2023-05-25T12:59:29;101063.75;;;30.39;29.72
19736;BME280;32064;49.310;8.646;2023-05-25T13:01:56;101061.94;;;30.01;30.51
19736;BME280;32064;49.310;8.646;2023-05-25T13:04:21;101063.41;;;29.97;30.15
19736;BME280;32064;49.310;8.646;2023-05-25T13:06:47;101068.31;;;30.13;30.15
19736;BME280;32064;49.310;8.646;2023-05-25T13:09:13;101065.53;;;30.27;29.84
19736;BME280;32064;49.310;8.646;2023-05-25T13:11:38;101067.63;;;30.25;29.88
19736;BME280;32064;49.310;8.646;2023-05-25T13:14:04;101068.47;;;30.25;30.22
19736;BME280;32064;49.310;8.646;2023-05-25T13:16:32;101054.50;;;29.90;29.94